Schedule Details

Flight Number: CPX778
Departure: Incheon International Airport (RKSI) at N/A
Arrival: Chinggis Khaan International Airport (ZMUB) at N/A
Route: NOPIK1Y NOPIK G597 DONVO A326 LADIX B339 UDA


Current Weather Information
RKSI 192330Z 28006KT 260V340 6000 BKN040 02/M02 Q1025 NOSIG
ZMUB 192330Z VRB01MPS 8000NW NSC M25/M30 Q1019 NOSIG RMK QFE657.1 60 NT